Terminal Aerodrome Forecast
Issued by NWS Topeka, KS

Home | Current Version | Previous Version | Text Only | Print | Product List | Glossary Off
Versions: 1 2 3 4 5 6 7 8 9 10 11 12 13 14 15 16 17 18 19 20 21

000
FTUS43 KTOP 140500
TAFTOP
TAF
KTOP 140526Z 1406/1506 10003KT P6SM BKN060
     FM140900 09003KT P6SM SCT060
     FM141400 16008KT P6SM SCT100=

USA.gov is the U.S. government's official web portal to all federal, state and local government web resources and services.